createdAt,value
2022-10-29T00:00:47.648Z,1009.42
2022-10-29T00:01:47.380Z,1009.38
2022-10-29T00:02:47.387Z,1009.34
2022-10-29T00:03:47.308Z,1009.35
2022-10-29T00:04:47.287Z,1009.30
2022-10-29T00:05:47.585Z,1009.30
2022-10-29T00:06:47.334Z,1009.32
2022-10-29T00:07:47.256Z,1009.31
2022-10-29T00:08:47.245Z,1009.36
2022-10-29T00:09:47.238Z,1009.37
2022-10-29T00:10:47.218Z,1009.27
2022-10-29T00:11:47.229Z,1009.31
2022-10-29T00:12:47.527Z,1009.30
2022-10-29T00:13:47.415Z,1009.24
2022-10-29T00:14:47.199Z,1009.23
2022-10-29T00:15:47.468Z,1009.20
2022-10-29T00:16:47.150Z,1009.18
2022-10-29T00:17:47.145Z,1009.24
2022-10-29T00:18:47.144Z,1009.32
2022-10-29T00:19:47.446Z,1009.34
2022-10-29T00:20:47.124Z,1009.39
2022-10-29T00:21:47.101Z,1009.36
2022-10-29T00:22:47.095Z,1009.34
2022-10-29T00:23:47.076Z,1009.32
2022-10-29T00:24:47.406Z,1009.30
2022-10-29T00:25:47.057Z,1009.28
2022-10-29T00:26:47.045Z,1009.28
2022-10-29T00:27:47.035Z,1009.23
2022-10-29T00:28:47.325Z,1009.18
2022-10-29T00:29:47.003Z,1009.16
2022-10-29T00:30:47.000Z,1009.20
2022-10-29T00:31:47.001Z,1009.22
2022-10-29T00:32:46.965Z,1009.21
2022-10-29T00:33:46.987Z,1009.20
2022-10-29T00:34:47.188Z,1009.21
2022-10-29T00:35:46.948Z,1009.26
2022-10-29T00:36:46.917Z,1009.24
2022-10-29T00:37:46.926Z,1009.25
2022-10-29T00:38:46.900Z,1009.25
2022-10-29T00:39:47.220Z,1009.28
2022-10-29T00:40:46.877Z,1009.35
2022-10-29T00:41:46.880Z,1009.38
2022-10-29T00:42:46.889Z,1009.35
2022-10-29T00:43:46.851Z,1009.40
2022-10-29T00:44:46.827Z,1009.40
2022-10-29T00:45:47.069Z,1009.35
2022-10-29T00:46:47.121Z,1009.40
2022-10-29T00:47:46.791Z,1009.39
2022-10-29T00:48:46.778Z,1009.39
2022-10-29T00:49:46.774Z,1009.42
2022-10-29T00:50:46.771Z,1009.43
2022-10-29T00:51:46.750Z,1009.40
2022-10-29T00:52:46.974Z,1009.43
2022-10-29T00:53:49.647Z,1009.40
2022-10-29T00:54:46.705Z,1009.33
2022-10-29T00:55:46.693Z,1009.37
2022-10-29T00:56:46.693Z,1009.30
2022-10-29T00:57:46.687Z,1009.31
2022-10-29T00:58:46.697Z,1009.28
2022-10-29T00:59:46.669Z,1009.27
2022-10-29T01:00:46.655Z,1009.25
2022-10-29T01:01:46.738Z,1009.16
2022-10-29T01:02:46.716Z,1009.22
2022-10-29T01:03:46.895Z,1009.24
2022-10-29T01:04:46.593Z,1009.22
2022-10-29T01:05:46.585Z,1009.21
2022-10-29T01:06:46.568Z,1009.20
2022-10-29T01:07:46.564Z,1009.24
2022-10-29T01:08:46.658Z,1009.17
2022-10-29T01:09:46.541Z,1009.23
2022-10-29T01:10:46.792Z,1009.21
2022-10-29T01:11:46.515Z,1009.22
2022-10-29T01:12:46.813Z,1009.23
2022-10-29T01:13:46.509Z,1009.21
2022-10-29T01:14:46.732Z,1009.16
2022-10-29T01:15:46.467Z,1009.18
2022-10-29T01:16:46.765Z,1009.15
2022-10-29T01:17:46.439Z,1009.16
2022-10-29T01:18:46.522Z,1009.13
2022-10-29T01:19:46.432Z,1009.12
2022-10-29T01:20:46.400Z,1009.06
2022-10-29T01:21:46.411Z,1009.12
2022-10-29T01:22:46.402Z,1009.11
2022-10-29T01:23:46.386Z,1009.11
2022-10-29T01:24:46.351Z,1009.14
2022-10-29T01:25:46.348Z,1009.16
2022-10-29T01:26:46.557Z,1009.12
2022-10-29T01:27:46.323Z,1009.11
2022-10-29T01:28:46.623Z,1009.13
2022-10-29T01:29:46.314Z,1009.15
2022-10-29T01:30:46.286Z,1009.14
2022-10-29T01:31:46.287Z,1009.17
2022-10-29T01:32:46.275Z,1009.12
2022-10-29T01:33:46.574Z,1009.13
2022-10-29T01:34:46.444Z,1009.10
2022-10-29T01:35:46.238Z,1009.06
2022-10-29T01:36:46.217Z,1008.99
2022-10-29T01:37:46.415Z,1009.06
2022-10-29T01:38:46.209Z,1009.05
2022-10-29T01:39:46.199Z,1009.01
2022-10-29T01:40:46.180Z,1009.05
2022-10-29T01:41:46.173Z,1008.99
2022-10-29T01:42:46.160Z,1008.98
2022-10-29T01:43:46.335Z,1009.01
2022-10-29T01:44:46.117Z,1008.98
2022-10-29T01:45:46.129Z,1008.95
2022-10-29T01:46:46.119Z,1008.93
2022-10-29T01:47:46.100Z,1008.93
2022-10-29T01:48:46.090Z,1008.93
2022-10-29T01:49:46.303Z,1008.88
2022-10-29T01:50:46.080Z,1008.97
2022-10-29T01:51:46.368Z,1008.88
2022-10-29T01:52:46.054Z,1008.85
2022-10-29T01:53:46.032Z,1008.93
2022-10-29T01:54:46.001Z,1008.91
2022-10-29T01:55:45.999Z,1008.87
2022-10-29T01:56:46.203Z,1008.87
2022-10-29T01:57:45.976Z,1008.82
2022-10-29T01:58:45.972Z,1008.84
2022-10-29T01:59:55.588Z,1008.86
2022-10-29T02:00:46.954Z,1008.74
2022-10-29T02:01:45.945Z,1008.74
2022-10-29T02:02:48.566Z,1008.73
2022-10-29T02:03:45.927Z,1008.74
2022-10-29T02:04:45.905Z,1008.72
2022-10-29T02:05:45.896Z,1008.68
2022-10-29T02:06:45.995Z,1008.63
2022-10-29T02:07:45.873Z,1008.59
2022-10-29T02:08:45.858Z,1008.56
2022-10-29T02:09:46.137Z,1008.56
2022-10-29T02:10:45.826Z,1008.57
2022-10-29T02:11:45.805Z,1008.60
2022-10-29T02:12:45.809Z,1008.64
2022-10-29T02:13:45.779Z,1008.63
2022-10-29T02:14:46.029Z,1008.61
2022-10-29T02:15:45.770Z,1008.66
2022-10-29T02:16:45.749Z,1008.59
2022-10-29T02:17:45.751Z,1008.66
2022-10-29T02:18:45.742Z,1008.63
2022-10-29T02:19:45.731Z,1008.62
2022-10-29T02:20:46.036Z,1008.68
2022-10-29T02:21:45.703Z,1008.71
2022-10-29T02:22:45.679Z,1008.69
2022-10-29T02:23:45.670Z,1008.66
2022-10-29T02:24:45.963Z,1008.66
2022-10-29T02:25:46.052Z,1008.62
2022-10-29T02:26:45.630Z,1008.62
2022-10-29T02:27:45.634Z,1008.58
2022-10-29T02:28:45.637Z,1008.61
2022-10-29T02:29:45.593Z,1008.65
2022-10-29T02:30:45.591Z,1008.65
2022-10-29T02:31:45.851Z,1008.65
2022-10-29T02:32:45.585Z,1008.66
2022-10-29T02:33:45.552Z,1008.63
2022-10-29T02:34:45.558Z,1008.62
2022-10-29T02:35:45.548Z,1008.57
2022-10-29T02:36:45.515Z,1008.54
2022-10-29T02:37:45.824Z,1008.52
2022-10-29T02:38:45.518Z,1008.48
2022-10-29T02:39:45.484Z,1008.45
2022-10-29T02:40:45.489Z,1008.47
2022-10-29T02:41:45.468Z,1008.47
2022-10-29T02:42:45.781Z,1008.47
2022-10-29T02:43:45.449Z,1008.44
2022-10-29T02:44:45.450Z,1008.49
2022-10-29T02:45:45.416Z,1008.54
2022-10-29T02:46:45.407Z,1008.53
2022-10-29T02:47:45.390Z,1008.47
2022-10-29T02:48:45.669Z,1008.45
2022-10-29T02:49:45.368Z,1008.38
2022-10-29T02:50:45.379Z,1008.41
2022-10-29T02:51:45.359Z,1008.38
2022-10-29T02:52:45.337Z,1008.40
2022-10-29T02:53:45.650Z,1008.37
2022-10-29T02:54:45.317Z,1008.38
2022-10-29T02:55:45.311Z,1008.36
2022-10-29T02:56:45.303Z,1008.37
2022-10-29T02:57:45.269Z,1008.33
2022-10-29T02:58:45.284Z,1008.36
2022-10-29T02:59:45.561Z,1008.32
2022-10-29T03:00:45.278Z,1008.31
2022-10-29T03:01:45.363Z,1008.36
2022-10-29T03:02:45.284Z,1008.30
2022-10-29T03:03:45.215Z,1008.33
2022-10-29T03:04:45.192Z,1008.38
2022-10-29T03:05:48.977Z,1008.35
2022-10-29T03:06:45.180Z,1008.33
2022-10-29T03:07:45.154Z,1008.33
2022-10-29T03:08:45.153Z,1008.31
2022-10-29T03:09:45.148Z,1008.28
2022-10-29T03:10:45.124Z,1008.24
2022-10-29T03:11:45.426Z,1008.28
2022-10-29T03:12:45.118Z,1008.28
2022-10-29T03:13:45.100Z,1008.30
2022-10-29T03:14:45.090Z,1008.25
2022-10-29T03:15:45.073Z,1008.22
2022-10-29T03:16:45.055Z,1008.21
2022-10-29T03:17:45.328Z,1008.21
2022-10-29T03:18:45.037Z,1008.26
2022-10-29T03:19:45.338Z,1008.28
2022-10-29T03:20:45.015Z,1008.31
2022-10-29T03:21:44.997Z,1008.34
2022-10-29T03:22:45.008Z,1008.31
2022-10-29T03:23:44.991Z,1008.36
2022-10-29T03:24:45.229Z,1008.31
2022-10-29T03:25:44.958Z,1008.36
2022-10-29T03:26:44.946Z,1008.37
2022-10-29T03:27:44.927Z,1008.40
2022-10-29T03:29:45.217Z,1008.45
2022-10-29T03:30:44.891Z,1008.43
2022-10-29T03:31:44.879Z,1008.42
2022-10-29T03:32:44.883Z,1008.41
2022-10-29T03:33:44.851Z,1008.39
2022-10-29T03:34:44.884Z,1008.36
2022-10-29T03:35:45.134Z,1008.36
2022-10-29T03:36:45.130Z,1008.34
2022-10-29T03:37:44.827Z,1008.37
2022-10-29T03:38:44.815Z,1008.29
2022-10-29T03:39:44.782Z,1008.32
2022-10-29T03:40:44.795Z,1008.29
2022-10-29T03:41:44.764Z,1008.30
2022-10-29T03:42:45.018Z,1008.30
2022-10-29T03:43:44.773Z,1008.31
2022-10-29T03:44:44.733Z,1008.29
2022-10-29T03:45:44.715Z,1008.28
2022-10-29T03:46:44.969Z,1008.31
2022-10-29T03:47:44.726Z,1008.29
2022-10-29T03:48:44.686Z,1008.30
2022-10-29T03:49:44.674Z,1008.22
2022-10-29T03:50:44.670Z,1008.24
2022-10-29T03:51:44.667Z,1008.19
2022-10-29T03:52:44.836Z,1008.14
2022-10-29T03:53:44.648Z,1008.13
2022-10-29T03:54:44.642Z,1008.16
2022-10-29T03:55:44.600Z,1008.17
2022-10-29T03:56:44.588Z,1008.20
2022-10-29T03:57:44.909Z,1008.22
2022-10-29T03:58:44.809Z,1008.29
2022-10-29T03:59:47.125Z,1008.31
2022-10-29T04:00:45.553Z,1008.31
2022-10-29T04:01:45.011Z,1008.31
2022-10-29T04:02:44.575Z,1008.30
2022-10-29T04:03:44.526Z,1008.36
2022-10-29T04:04:44.504Z,1008.40
2022-10-29T04:05:44.481Z,1008.31
2022-10-29T04:06:44.690Z,1008.31
2022-10-29T04:07:44.474Z,1008.33
2022-10-29T04:08:44.752Z,1008.28
2022-10-29T04:09:44.455Z,1008.27
2022-10-29T04:10:44.446Z,1008.28
2022-10-29T04:11:44.433Z,1008.32
2022-10-29T04:12:44.424Z,1008.28
2022-10-29T04:13:44.702Z,1008.29
2022-10-29T04:14:45.715Z,1008.30
2022-10-29T04:15:44.383Z,1008.26
2022-10-29T04:16:44.361Z,1008.21
2022-10-29T04:17:44.366Z,1008.17
2022-10-29T04:18:44.355Z,1008.18
2022-10-29T04:19:44.604Z,1008.12
2022-10-29T04:22:31.620Z,1008.10
2022-10-29T04:28:32.824Z,1007.92
2022-10-29T04:28:45.471Z,1007.93
2022-10-29T04:29:44.430Z,1007.92
2022-10-29T04:30:44.197Z,1007.89
2022-10-29T04:31:44.513Z,1007.88
2022-10-29T04:32:44.191Z,1007.89
2022-10-29T04:33:44.180Z,1007.87
2022-10-29T04:34:44.172Z,1007.90
2022-10-29T04:35:44.148Z,1007.91
2022-10-29T04:36:44.143Z,1007.92
2022-10-29T04:37:44.329Z,1007.94
2022-10-29T04:38:44.118Z,1007.98
2022-10-29T04:39:44.098Z,1007.95
2022-10-29T04:40:44.094Z,1007.95
2022-10-29T04:41:44.069Z,1007.91
2022-10-29T04:42:44.353Z,1007.90
2022-10-29T04:43:44.064Z,1007.89
2022-10-29T04:44:44.043Z,1007.91
2022-10-29T04:46:44.036Z,1007.92
2022-10-29T04:47:44.019Z,1007.91
2022-10-29T04:48:44.367Z,1008.00
2022-10-29T04:49:43.973Z,1008.03
2022-10-29T04:50:43.975Z,1008.05
2022-10-29T04:51:43.953Z,1008.06
2022-10-29T04:52:43.960Z,1008.12
2022-10-29T04:53:44.197Z,1008.14
2022-10-29T04:54:44.226Z,1008.15
2022-10-29T04:55:43.929Z,1008.15
2022-10-29T04:56:43.904Z,1008.10
2022-10-29T04:57:43.886Z,1008.03
2022-10-29T04:58:43.878Z,1007.96
2022-10-29T04:59:44.208Z,1007.91
2022-10-29T05:00:43.887Z,1007.91
2022-10-29T05:01:43.840Z,1007.85
2022-10-29T05:02:43.839Z,1007.79
2022-10-29T05:03:43.817Z,1007.67
2022-10-29T05:04:43.819Z,1007.68
2022-10-29T05:05:44.140Z,1007.71
2022-10-29T05:06:43.778Z,1007.73
2022-10-29T05:07:43.767Z,1007.77
2022-10-29T05:08:43.772Z,1007.71
2022-10-29T05:09:43.745Z,1007.72
2022-10-29T05:10:43.997Z,1007.73
2022-10-29T05:11:43.720Z,1007.72
2022-10-29T05:12:43.712Z,1007.70
2022-10-29T05:13:43.712Z,1007.68
2022-10-29T05:14:43.689Z,1007.69
2022-10-29T05:15:46.876Z,1007.59
2022-10-29T05:16:44.683Z,1007.56
2022-10-29T05:17:43.653Z,1007.57
2022-10-29T05:18:43.695Z,1007.54
2022-10-29T05:19:43.955Z,1007.47
2022-10-29T05:20:43.637Z,1007.51
2022-10-29T05:21:43.613Z,1007.43
2022-10-29T05:22:43.601Z,1007.37
2022-10-29T05:23:43.605Z,1007.38
2022-10-29T05:24:43.890Z,1007.33
2022-10-29T05:25:43.563Z,1007.34
2022-10-29T05:26:43.566Z,1007.36
2022-10-29T05:27:43.534Z,1007.34
2022-10-29T05:28:43.836Z,1007.33
2022-10-29T05:29:43.528Z,1007.36
2022-10-29T05:30:43.527Z,1007.23
2022-10-29T05:31:43.494Z,1007.30
2022-10-29T05:32:43.800Z,1007.34
2022-10-29T05:33:43.476Z,1007.35
2022-10-29T05:34:44.533Z,1007.38
2022-10-29T05:35:43.445Z,1007.36
2022-10-29T05:36:43.770Z,1007.42
2022-10-29T05:37:43.437Z,1007.39
2022-10-29T05:38:43.428Z,1007.48
2022-10-29T05:39:43.398Z,1007.51
2022-10-29T05:40:43.402Z,1007.58
2022-10-29T05:41:43.607Z,1007.62
2022-10-29T05:42:55.266Z,1007.56
2022-10-29T05:43:44.371Z,1007.54
2022-10-29T05:44:43.348Z,1007.54
2022-10-29T05:45:43.329Z,1007.56
2022-10-29T05:46:43.622Z,1007.60
2022-10-29T05:47:43.307Z,1007.58
2022-10-29T05:48:43.300Z,1007.60
2022-10-29T05:49:43.305Z,1007.62
2022-10-29T05:50:43.295Z,1007.58
2022-10-29T05:51:43.280Z,1007.54
2022-10-29T05:52:43.253Z,1007.49
2022-10-29T05:53:43.901Z,1007.48
2022-10-29T05:54:43.248Z,1007.47
2022-10-29T05:55:43.225Z,1007.41
2022-10-29T05:56:43.203Z,1007.38
2022-10-29T05:57:43.452Z,1007.43
2022-10-29T05:58:43.196Z,1007.37
2022-10-29T05:59:43.176Z,1007.41
2022-10-29T06:00:43.166Z,1007.44
2022-10-29T06:01:43.218Z,1007.51
2022-10-29T06:02:43.512Z,1007.51
2022-10-29T06:03:43.144Z,1007.47
2022-10-29T06:04:43.117Z,1007.51
2022-10-29T06:05:43.404Z,1007.52
2022-10-29T06:06:43.197Z,1007.48
2022-10-29T06:07:43.437Z,1007.49
2022-10-29T06:08:43.078Z,1007.49
2022-10-29T06:09:43.055Z,1007.52
2022-10-29T06:10:43.359Z,1007.53
2022-10-29T06:11:43.026Z,1007.50
2022-10-29T06:12:43.040Z,1007.53
2022-10-29T06:13:43.021Z,1007.51
2022-10-29T06:14:43.010Z,1007.51
2022-10-29T06:15:43.251Z,1007.52
2022-10-29T06:16:42.988Z,1007.50
2022-10-29T06:17:42.967Z,1007.47
2022-10-29T06:18:42.966Z,1007.49
2022-10-29T06:19:42.957Z,1007.47
2022-10-29T06:20:42.942Z,1007.47
2022-10-29T06:21:43.244Z,1007.45
2022-10-29T06:22:42.899Z,1007.52
2022-10-29T06:23:42.889Z,1007.49
2022-10-29T06:24:42.894Z,1007.50
2022-10-29T06:25:42.884Z,1007.53
2022-10-29T06:26:43.135Z,1007.52
2022-10-29T06:27:42.855Z,1007.50
2022-10-29T06:28:42.845Z,1007.47
2022-10-29T06:29:42.820Z,1007.41
2022-10-29T06:30:42.825Z,1007.39
2022-10-29T06:31:42.802Z,1007.40
2022-10-29T06:32:43.042Z,1007.40
2022-10-29T06:33:42.773Z,1007.38
2022-10-29T06:34:42.790Z,1007.33
2022-10-29T06:35:42.994Z,1007.39
2022-10-29T06:36:42.760Z,1007.36
2022-10-29T06:37:42.746Z,1007.34
2022-10-29T06:38:42.723Z,1007.30
2022-10-29T06:39:42.731Z,1007.34
2022-10-29T06:40:42.705Z,1007.36
2022-10-29T06:41:43.018Z,1007.39
2022-10-29T06:42:42.676Z,1007.40
2022-10-29T06:43:42.686Z,1007.41
2022-10-29T06:44:42.657Z,1007.48
2022-10-29T06:45:42.670Z,1007.44
2022-10-29T06:46:42.640Z,1007.45
2022-10-29T06:47:42.630Z,1007.43
2022-10-29T06:48:42.613Z,1007.45
2022-10-29T06:49:42.848Z,1007.43
2022-10-29T06:50:42.600Z,1007.43
2022-10-29T06:51:42.571Z,1007.41
2022-10-29T06:52:42.557Z,1007.34
2022-10-29T06:53:42.548Z,1007.34
2022-10-29T06:54:42.851Z,1007.36
2022-10-29T06:55:42.761Z,1007.38
2022-10-29T06:56:42.510Z,1007.38
2022-10-29T06:57:42.524Z,1007.43
2022-10-29T06:58:42.490Z,1007.41
2022-10-29T06:59:42.495Z,1007.35
2022-10-29T07:00:42.611Z,1007.41
2022-10-29T07:01:42.811Z,1007.38
2022-10-29T07:02:42.454Z,1007.42
2022-10-29T07:03:42.446Z,1007.40
2022-10-29T07:04:42.425Z,1007.46
2022-10-29T07:05:42.411Z,1007.43
2022-10-29T07:06:42.702Z,1007.42
2022-10-29T07:07:42.384Z,1007.40
2022-10-29T07:08:42.363Z,1007.36
2022-10-29T07:09:42.364Z,1007.37
2022-10-29T07:10:42.374Z,1007.33
2022-10-29T07:11:42.603Z,1007.32
2022-10-29T07:12:42.325Z,1007.32
2022-10-29T07:13:42.316Z,1007.33
2022-10-29T07:14:42.321Z,1007.35
2022-10-29T07:15:42.300Z,1007.31
2022-10-29T07:16:42.275Z,1007.38
2022-10-29T07:17:42.579Z,1007.35
2022-10-29T07:18:42.257Z,1007.33
2022-10-29T07:19:42.252Z,1007.36
2022-10-29T07:20:42.227Z,1007.39
2022-10-29T07:21:42.917Z,1007.38
2022-10-29T07:22:42.207Z,1007.40
2022-10-29T07:23:42.512Z,1007.41
2022-10-29T07:24:42.201Z,1007.41
2022-10-29T07:25:42.178Z,1007.41
2022-10-29T07:26:42.167Z,1007.41
2022-10-29T07:27:42.199Z,1007.43
2022-10-29T07:28:42.152Z,1007.46
2022-10-29T07:29:42.418Z,1007.42
2022-10-29T07:30:42.131Z,1007.38
2022-10-29T07:31:42.110Z,1007.44
2022-10-29T07:32:42.405Z,1007.48
2022-10-29T07:33:42.082Z,1007.48
2022-10-29T07:34:42.080Z,1007.51
2022-10-29T07:35:42.064Z,1007.51
2022-10-29T07:36:42.042Z,1007.54
2022-10-29T07:37:42.058Z,1007.56
2022-10-29T07:38:42.355Z,1007.61
2022-10-29T07:39:42.026Z,1007.59
2022-10-29T07:40:42.027Z,1007.60
2022-10-29T07:41:41.994Z,1007.57
2022-10-29T07:42:41.972Z,1007.56
2022-10-29T07:43:41.970Z,1007.57
2022-10-29T07:44:42.237Z,1007.62
2022-10-29T07:45:41.966Z,1007.56
2022-10-29T07:46:41.925Z,1007.55
2022-10-29T07:47:41.936Z,1007.51
2022-10-29T07:48:41.906Z,1007.49
2022-10-29T07:49:41.895Z,1007.45
2022-10-29T07:50:42.195Z,1007.44
2022-10-29T07:51:41.889Z,1007.49
2022-10-29T07:52:41.869Z,1007.50
2022-10-29T07:53:41.847Z,1007.55
2022-10-29T07:54:41.847Z,1007.47
2022-10-29T07:55:41.837Z,1007.53
2022-10-29T07:56:45.156Z,1007.49
2022-10-29T07:57:42.806Z,1007.47
2022-10-29T07:58:41.801Z,1007.50
2022-10-29T07:59:41.791Z,1007.49
2022-10-29T08:00:41.823Z,1007.47
2022-10-29T08:01:42.131Z,1007.44
2022-10-29T08:02:41.781Z,1007.47
2022-10-29T08:03:41.742Z,1007.49
2022-10-29T08:04:41.722Z,1007.53
2022-10-29T08:05:42.915Z,1007.46
2022-10-29T08:06:41.699Z,1007.48
2022-10-29T08:07:42.040Z,1007.46
2022-10-29T08:08:41.671Z,1007.46
2022-10-29T08:09:41.661Z,1007.54
2022-10-29T08:10:41.652Z,1007.53
2022-10-29T08:11:41.776Z,1007.52
2022-10-29T08:12:41.636Z,1007.54
2022-10-29T08:13:41.841Z,1007.53
2022-10-29T08:14:41.617Z,1007.53
2022-10-29T08:15:41.593Z,1007.47
2022-10-29T08:16:41.596Z,1007.54
2022-10-29T08:17:42.534Z,1007.49
2022-10-29T08:18:41.586Z,1007.50
2022-10-29T08:19:41.856Z,1007.48
2022-10-29T08:20:41.534Z,1007.50
2022-10-29T08:21:41.526Z,1007.45
2022-10-29T08:22:41.528Z,1007.49
2022-10-29T08:23:41.525Z,1007.50
2022-10-29T08:24:41.514Z,1007.52
2022-10-29T08:25:41.585Z,1007.46
2022-10-29T08:26:41.496Z,1007.48
2022-10-29T08:27:41.493Z,1007.52
2022-10-29T08:28:41.458Z,1007.46
2022-10-29T08:29:41.695Z,1007.49
2022-10-29T08:30:41.453Z,1007.52
2022-10-29T08:31:41.639Z,1007.49
2022-10-29T08:32:41.412Z,1007.46
2022-10-29T08:33:41.379Z,1007.47
2022-10-29T08:34:41.383Z,1007.46
2022-10-29T08:35:41.591Z,1007.41
2022-10-29T08:36:41.341Z,1007.42
2022-10-29T08:37:41.364Z,1007.40
2022-10-29T08:38:41.320Z,1007.39
2022-10-29T08:39:41.312Z,1007.44
2022-10-29T08:40:41.610Z,1007.41
2022-10-29T08:41:41.305Z,1007.39
2022-10-29T08:42:41.295Z,1007.40
2022-10-29T08:43:47.019Z,1007.41
2022-10-29T08:44:42.252Z,1007.37
2022-10-29T08:45:41.526Z,1007.38
2022-10-29T08:46:41.243Z,1007.41
2022-10-29T08:47:41.224Z,1007.38
2022-10-29T08:48:41.216Z,1007.36
2022-10-29T08:49:41.202Z,1007.35
2022-10-29T08:50:41.410Z,1007.34
2022-10-29T08:51:41.189Z,1007.39
2022-10-29T08:52:52.886Z,1007.35
2022-10-29T08:53:42.170Z,1007.35
2022-10-29T08:54:41.148Z,1007.28
2022-10-29T08:55:41.138Z,1007.36
2022-10-29T08:56:41.354Z,1007.29
2022-10-29T08:57:41.112Z,1007.26
2022-10-29T08:58:41.086Z,1007.26
2022-10-29T08:59:41.087Z,1007.18
2022-10-29T09:00:41.142Z,1007.19
2022-10-29T09:01:41.434Z,1007.15
2022-10-29T09:02:41.299Z,1007.10
2022-10-29T09:03:41.049Z,1007.15
2022-10-29T09:04:41.027Z,1007.21
2022-10-29T09:05:41.022Z,1007.24
2022-10-29T09:06:41.012Z,1007.23
2022-10-29T09:07:41.007Z,1007.22
2022-10-29T09:08:41.007Z,1007.24
2022-10-29T09:09:41.292Z,1007.23
2022-10-29T09:10:40.966Z,1007.22
2022-10-29T09:11:40.976Z,1007.18
2022-10-29T09:12:40.935Z,1007.17
2022-10-29T09:13:40.937Z,1007.23
2022-10-29T09:14:40.902Z,1007.26
2022-10-29T09:15:40.913Z,1007.26
2022-10-29T09:17:40.873Z,1007.23
2022-10-29T09:18:40.863Z,1007.28
2022-10-29T09:19:40.851Z,1007.25
2022-10-29T09:20:40.838Z,1007.23
2022-10-29T09:21:40.825Z,1007.26
2022-10-29T09:22:40.825Z,1007.28
2022-10-29T09:23:40.822Z,1007.24
2022-10-29T09:24:40.814Z,1007.19
2022-10-29T09:25:40.789Z,1007.22
2022-10-29T09:26:40.988Z,1007.19
2022-10-29T09:27:40.769Z,1007.18
2022-10-29T09:28:40.744Z,1007.21
2022-10-29T09:29:40.727Z,1007.15
2022-10-29T09:30:40.707Z,1007.15
2022-10-29T09:31:40.709Z,1007.16
2022-10-29T09:32:40.961Z,1007.18
2022-10-29T09:33:40.678Z,1007.14
2022-10-29T09:34:40.681Z,1007.16
2022-10-29T09:35:40.703Z,1007.16
2022-10-29T09:36:40.652Z,1007.16
2022-10-29T09:37:40.680Z,1007.17
2022-10-29T09:38:40.873Z,1007.21
2022-10-29T09:39:40.634Z,1007.21
2022-10-29T09:40:40.646Z,1007.20
2022-10-29T09:41:40.606Z,1007.19
2022-10-29T09:42:40.597Z,1007.20
2022-10-29T09:43:40.597Z,1007.20
2022-10-29T09:44:40.893Z,1007.18
2022-10-29T09:45:40.591Z,1007.15
2022-10-29T09:46:40.554Z,1007.16
2022-10-29T09:47:40.875Z,1007.14
2022-10-29T09:48:40.547Z,1007.14
2022-10-29T09:49:40.520Z,1007.13
2022-10-29T09:50:40.484Z,1007.13
2022-10-29T09:51:40.484Z,1007.13
2022-10-29T09:52:40.499Z,1007.14
2022-10-29T09:53:40.468Z,1007.11
2022-10-29T09:54:40.457Z,1007.17
2022-10-29T09:55:40.438Z,1007.09
2022-10-29T09:56:40.438Z,1007.14
2022-10-29T09:57:40.407Z,1007.10
2022-10-29T09:58:40.621Z,1007.11
2022-10-29T09:59:40.415Z,1007.11
2022-10-29T10:00:40.381Z,1007.12
2022-10-29T10:01:40.416Z,1007.13
2022-10-29T10:02:40.426Z,1007.15
2022-10-29T10:03:40.633Z,1007.14
2022-10-29T10:04:40.355Z,1007.05
2022-10-29T10:05:40.333Z,1007.04
2022-10-29T10:06:41.456Z,1006.96
2022-10-29T10:07:40.312Z,1006.96
2022-10-29T10:08:40.283Z,1007.00
2022-10-29T10:09:40.272Z,1006.92
2022-10-29T10:10:40.263Z,1006.86
2022-10-29T10:11:40.258Z,1006.85
2022-10-29T10:12:40.544Z,1006.90
2022-10-29T10:13:40.224Z,1006.86
2022-10-29T10:14:40.213Z,1006.92
2022-10-29T10:15:40.226Z,1006.94
2022-10-29T10:16:40.200Z,1006.99
2022-10-29T10:17:40.197Z,1006.93
2022-10-29T10:18:40.560Z,1006.94
2022-10-29T10:19:40.178Z,1006.91
2022-10-29T10:20:40.146Z,1006.96
2022-10-29T10:21:40.183Z,1006.96
2022-10-29T10:22:40.139Z,1006.99
2022-10-29T10:23:40.127Z,1006.97
2022-10-29T10:24:40.429Z,1007.00
2022-10-29T10:25:40.186Z,1006.99
2022-10-29T10:26:40.136Z,1007.00
2022-10-29T10:27:40.083Z,1006.99
2022-10-29T10:28:40.060Z,1006.98
2022-10-29T10:29:40.062Z,1006.98
2022-10-29T10:30:40.338Z,1006.94
2022-10-29T10:31:40.037Z,1006.95
2022-10-29T10:32:40.010Z,1006.95
2022-10-29T10:33:40.019Z,1006.92
2022-10-29T10:34:39.983Z,1006.93
2022-10-29T10:35:39.992Z,1006.97
2022-10-29T10:36:40.184Z,1006.95
2022-10-29T10:37:39.952Z,1006.98
2022-10-29T10:38:39.952Z,1006.96
2022-10-29T10:39:39.942Z,1006.88
2022-10-29T10:40:39.934Z,1006.91
2022-10-29T10:41:40.226Z,1006.88
2022-10-29T10:42:39.916Z,1006.88
2022-10-29T10:43:39.898Z,1006.87
2022-10-29T10:44:39.889Z,1006.82
2022-10-29T10:45:39.889Z,1006.84
2022-10-29T10:46:39.876Z,1006.80
2022-10-29T10:47:40.055Z,1006.75
2022-10-29T10:48:39.840Z,1006.78
2022-10-29T10:49:39.816Z,1006.75
2022-10-29T10:50:39.819Z,1006.73
2022-10-29T10:51:39.806Z,1006.78
2022-10-29T10:52:39.799Z,1006.81
2022-10-29T10:53:40.101Z,1006.82
2022-10-29T10:54:39.827Z,1006.77
2022-10-29T10:55:39.749Z,1006.83
2022-10-29T10:56:39.752Z,1006.78
2022-10-29T10:57:39.732Z,1006.77
2022-10-29T10:58:39.737Z,1006.75
2022-10-29T10:59:39.931Z,1006.78
2022-10-29T11:00:39.777Z,1006.74
2022-10-29T11:01:39.912Z,1006.80
2022-10-29T11:02:39.685Z,1006.75
2022-10-29T11:03:39.665Z,1006.70
2022-10-29T11:04:39.953Z,1006.68
2022-10-29T11:05:39.623Z,1006.67
2022-10-29T11:06:39.622Z,1006.65
2022-10-29T11:07:39.635Z,1006.67
2022-10-29T11:08:39.595Z,1006.70
2022-10-29T11:09:39.909Z,1006.67
2022-10-29T11:10:39.588Z,1006.62
2022-10-29T11:11:39.776Z,1006.59
2022-10-29T11:12:39.568Z,1006.65
2022-10-29T11:13:39.555Z,1006.67
2022-10-29T11:14:39.540Z,1006.68
2022-10-29T11:15:39.529Z,1006.78
2022-10-29T11:16:39.527Z,1006.74
2022-10-29T11:17:39.487Z,1006.70
2022-10-29T11:18:39.513Z,1006.75
2022-10-29T11:19:39.469Z,1006.75
2022-10-29T11:20:39.493Z,1006.71
2022-10-29T11:21:39.449Z,1006.73
2022-10-29T11:22:39.430Z,1006.73
2022-10-29T11:23:39.433Z,1006.72
2022-10-29T11:24:39.439Z,1006.71
2022-10-29T11:25:39.415Z,1006.74
2022-10-29T11:26:39.391Z,1006.73
2022-10-29T11:27:39.580Z,1006.73
2022-10-29T11:28:39.385Z,1006.68
2022-10-29T11:29:39.675Z,1006.70
2022-10-29T11:30:39.351Z,1006.69
2022-10-29T11:31:39.347Z,1006.67
2022-10-29T11:32:39.325Z,1006.65
2022-10-29T11:33:39.593Z,1006.63
2022-10-29T11:34:39.317Z,1006.63
2022-10-29T11:35:39.296Z,1006.62
2022-10-29T11:36:39.285Z,1006.58
2022-10-29T11:37:39.270Z,1006.57
2022-10-29T11:38:39.497Z,1006.55
2022-10-29T11:39:39.246Z,1006.55
2022-10-29T11:40:39.255Z,1006.51
2022-10-29T11:41:39.230Z,1006.54
2022-10-29T11:42:39.250Z,1006.50
2022-10-29T11:43:39.404Z,1006.56
2022-10-29T11:44:39.191Z,1006.55
2022-10-29T11:45:39.187Z,1006.54
2022-10-29T11:46:39.158Z,1006.52
2022-10-29T11:47:39.150Z,1006.53
2022-10-29T11:48:39.325Z,1006.51
2022-10-29T11:49:39.120Z,1006.50
2022-10-29T11:50:39.110Z,1006.49
2022-10-29T11:51:39.100Z,1006.47
2022-10-29T11:52:39.292Z,1006.46
2022-10-29T11:53:39.079Z,1006.48
2022-10-29T11:54:46.216Z,1006.46
2022-10-29T11:55:39.063Z,1006.43
2022-10-29T11:56:39.040Z,1006.43
2022-10-29T11:57:39.044Z,1006.45
2022-10-29T11:58:40.714Z,1006.43
2022-10-29T11:59:39.013Z,1006.37
2022-10-29T12:00:39.007Z,1006.38
2022-10-29T12:01:39.057Z,1006.44
2022-10-29T12:02:38.987Z,1006.46
2022-10-29T12:03:39.009Z,1006.38
2022-10-29T12:04:38.968Z,1006.38
2022-10-29T12:05:39.265Z,1006.39
2022-10-29T12:06:38.939Z,1006.39
2022-10-29T12:07:38.925Z,1006.37
2022-10-29T12:08:38.904Z,1006.42
2022-10-29T12:09:38.899Z,1006.43
2022-10-29T12:10:38.878Z,1006.47
2022-10-29T12:11:42.877Z,1006.40
2022-10-29T12:12:38.856Z,1006.39
2022-10-29T12:13:38.857Z,1006.36
2022-10-29T12:14:38.842Z,1006.38